createdAt,value
2018-10-06T00:00:58.297Z,14.30
2018-10-06T00:03:27.525Z,14.20
2018-10-06T00:05:57.133Z,14.30
2018-10-06T00:08:26.255Z,14.40
2018-10-06T00:10:55.486Z,14.30
2018-10-06T00:13:24.630Z,14.40
2018-10-06T00:15:56.869Z,14.50
2018-10-06T00:18:26.032Z,14.20
2018-10-06T00:20:55.177Z,14.30
2018-10-06T00:23:24.402Z,14.30
2018-10-06T00:25:53.623Z,14.20
2018-10-06T00:28:22.754Z,14.20
2018-10-06T00:30:51.867Z,14.20
2018-10-06T00:33:21.023Z,14.20
2018-10-06T00:35:50.185Z,14.10
2018-10-06T00:38:19.350Z,14.00
2018-10-06T00:40:48.509Z,14.10
2018-10-06T00:43:18.063Z,14.30
2018-10-06T00:45:47.199Z,14.10
2018-10-06T00:48:16.322Z,14.30
2018-10-06T00:50:45.462Z,14.40
2018-10-06T00:53:14.617Z,14.50
2018-10-06T00:55:43.752Z,14.50
2018-10-06T00:58:12.926Z,14.50
2018-10-06T01:00:42.054Z,14.40
2018-10-06T01:03:11.223Z,14.50
2018-10-06T01:05:40.386Z,14.50
2018-10-06T01:08:09.689Z,14.50
2018-10-06T01:10:38.822Z,14.50
2018-10-06T01:13:08.040Z,14.50
2018-10-06T01:15:37.195Z,14.50
2018-10-06T01:18:06.344Z,14.50
2018-10-06T01:20:35.633Z,14.40
2018-10-06T01:23:04.791Z,14.40
2018-10-06T01:25:34.331Z,14.40
2018-10-06T01:28:03.537Z,14.40
2018-10-06T01:30:32.734Z,14.40
2018-10-06T01:33:01.898Z,14.40
2018-10-06T01:35:31.026Z,14.40
2018-10-06T01:38:00.172Z,14.40
2018-10-06T01:40:29.286Z,14.40
2018-10-06T01:42:58.413Z,14.40
2018-10-06T01:45:27.564Z,14.30
2018-10-06T01:47:56.725Z,14.30
2018-10-06T01:50:25.883Z,14.20
2018-10-06T01:52:55.022Z,14.10
2018-10-06T01:55:24.140Z,14.10
2018-10-06T01:57:53.271Z,14.20
2018-10-06T02:00:22.418Z,14.20
2018-10-06T02:02:51.602Z,14.20
2018-10-06T02:05:20.743Z,14.20
2018-10-06T02:07:49.909Z,14.20
2018-10-06T02:10:19.038Z,14.30
2018-10-06T02:12:48.222Z,14.20
2018-10-06T02:15:17.399Z,14.10
2018-10-06T02:17:46.543Z,14.10
2018-10-06T02:20:15.678Z,14.00
2018-10-06T02:22:44.817Z,13.90
2018-10-06T02:25:14.425Z,13.80
2018-10-06T02:27:43.580Z,13.70
2018-10-06T02:30:12.745Z,13.60
2018-10-06T02:32:41.870Z,13.70
2018-10-06T02:35:11.018Z,13.80
2018-10-06T02:37:40.149Z,13.80
2018-10-06T02:40:09.313Z,13.80
2018-10-06T02:42:38.563Z,13.80
2018-10-06T02:45:08.555Z,14.00
2018-10-06T02:47:37.781Z,13.90
2018-10-06T02:50:06.977Z,13.90
2018-10-06T02:52:36.429Z,13.90
2018-10-06T02:55:05.914Z,13.80
2018-10-06T02:57:35.076Z,13.80
2018-10-06T03:00:04.629Z,13.90
2018-10-06T03:02:33.823Z,14.00
2018-10-06T03:05:03.426Z,14.00
2018-10-06T03:07:32.599Z,13.90
2018-10-06T03:10:01.764Z,13.90
2018-10-06T03:12:30.921Z,14.00
2018-10-06T03:15:00.263Z,13.90
2018-10-06T03:17:29.402Z,13.90
2018-10-06T03:19:58.561Z,13.80
2018-10-06T03:22:27.713Z,13.80
2018-10-06T03:24:56.840Z,13.80
2018-10-06T03:27:26.008Z,13.90
2018-10-06T03:29:55.190Z,13.90
2018-10-06T03:32:24.368Z,13.80
2018-10-06T03:34:53.497Z,13.80
2018-10-06T03:37:22.706Z,13.80
2018-10-06T03:39:51.853Z,13.50
2018-10-06T03:42:21.013Z,13.40
2018-10-06T03:44:50.149Z,13.50
2018-10-06T03:47:19.291Z,13.60
2018-10-06T03:49:48.752Z,13.60
2018-10-06T03:52:17.934Z,13.60
2018-10-06T03:54:47.133Z,13.50
2018-10-06T03:57:16.652Z,13.40
2018-10-06T03:59:45.799Z,13.50
2018-10-06T04:02:15.024Z,13.40
2018-10-06T04:04:44.170Z,13.60
2018-10-06T04:07:13.317Z,13.60
2018-10-06T04:09:42.486Z,13.60
2018-10-06T04:12:11.583Z,13.70
2018-10-06T04:14:40.728Z,13.70
2018-10-06T04:17:09.851Z,13.70
2018-10-06T04:19:38.983Z,13.70
2018-10-06T04:22:08.146Z,13.70
2018-10-06T04:24:37.260Z,13.70
2018-10-06T04:27:06.537Z,13.80
2018-10-06T04:29:35.824Z,13.70
2018-10-06T04:32:04.958Z,13.70
2018-10-06T04:34:34.122Z,13.70
2018-10-06T04:37:03.234Z,13.60
2018-10-06T04:39:32.799Z,13.60
2018-10-06T04:42:01.947Z,13.60
2018-10-06T04:44:31.097Z,13.50
2018-10-06T04:47:00.242Z,13.50
2018-10-06T04:49:29.391Z,13.50
2018-10-06T04:51:58.534Z,13.50
2018-10-06T04:54:27.697Z,13.50
2018-10-06T04:56:56.858Z,13.60
2018-10-06T04:59:26.005Z,13.60
2018-10-06T05:01:55.110Z,13.60
2018-10-06T05:04:24.261Z,13.60
2018-10-06T05:06:53.440Z,13.50
2018-10-06T05:09:22.806Z,13.50
2018-10-06T05:11:51.949Z,13.40
2018-10-06T05:14:21.075Z,13.40
2018-10-06T05:16:50.254Z,13.40
2018-10-06T05:19:19.407Z,13.40
2018-10-06T05:21:48.574Z,13.40
2018-10-06T05:24:17.807Z,13.30
2018-10-06T05:26:47.381Z,13.40
2018-10-06T05:29:16.685Z,13.40
2018-10-06T05:31:45.855Z,13.40
2018-10-06T05:34:15.092Z,13.40
2018-10-06T05:36:44.594Z,13.50
2018-10-06T05:39:13.802Z,13.50
2018-10-06T05:41:42.950Z,13.50
2018-10-06T05:44:12.136Z,13.50
2018-10-06T05:46:41.263Z,13.40
2018-10-06T05:49:10.414Z,13.40
2018-10-06T05:51:39.542Z,13.40
2018-10-06T05:54:08.678Z,13.30
2018-10-06T05:56:37.819Z,13.40
2018-10-06T05:59:07.107Z,13.40
2018-10-06T06:01:36.198Z,13.40
2018-10-06T06:04:05.377Z,13.40
2018-10-06T06:06:34.557Z,13.50
2018-10-06T06:09:04.497Z,13.50
2018-10-06T06:11:33.625Z,13.50
2018-10-06T06:14:02.794Z,13.60
2018-10-06T06:16:31.973Z,13.60
2018-10-06T06:19:01.141Z,13.70
2018-10-06T06:21:30.282Z,13.80
2018-10-06T06:23:59.475Z,13.80
2018-10-06T06:26:28.601Z,13.80
2018-10-06T06:28:57.792Z,13.80
2018-10-06T06:31:27.005Z,13.90
2018-10-06T06:33:56.083Z,13.90
2018-10-06T06:36:25.324Z,13.90
2018-10-06T06:38:54.806Z,14.00
2018-10-06T06:41:23.940Z,14.00
2018-10-06T06:43:53.473Z,14.00
2018-10-06T06:46:22.999Z,14.00
2018-10-06T06:48:52.163Z,14.00
2018-10-06T06:51:21.813Z,14.00
2018-10-06T06:53:51.021Z,14.10
2018-10-06T06:56:20.250Z,14.10
2018-10-06T06:58:49.444Z,14.10
2018-10-06T07:01:18.697Z,13.90
2018-10-06T07:03:47.880Z,13.80
2018-10-06T07:06:17.053Z,14.00
2018-10-06T07:08:46.293Z,14.20
2018-10-06T07:11:15.450Z,14.40
2018-10-06T07:13:44.664Z,14.40
2018-10-06T07:16:13.868Z,14.50
2018-10-06T07:18:43.052Z,14.60
2018-10-06T07:21:12.369Z,14.70
2018-10-06T07:23:41.512Z,15.00
2018-10-06T07:26:10.677Z,15.10
2018-10-06T07:28:39.922Z,15.10
2018-10-06T07:31:08.993Z,15.20
2018-10-06T07:33:38.167Z,15.30
2018-10-06T07:36:07.489Z,15.40
2018-10-06T07:38:36.628Z,15.40
2018-10-06T07:41:05.885Z,15.40
2018-10-06T07:43:35.011Z,15.30
2018-10-06T07:46:04.197Z,15.40
2018-10-06T07:48:33.356Z,15.50
2018-10-06T07:51:02.484Z,15.60
2018-10-06T07:53:31.650Z,15.70
2018-10-06T07:56:00.832Z,15.80
2018-10-06T07:58:29.970Z,16.00
2018-10-06T08:00:59.175Z,16.10
2018-10-06T08:03:28.307Z,16.10
2018-10-06T08:05:57.697Z,16.10
2018-10-06T08:08:26.918Z,16.20
2018-10-06T08:10:56.091Z,16.20
2018-10-06T08:13:25.267Z,16.30
2018-10-06T08:15:54.441Z,16.40
2018-10-06T08:18:23.629Z,16.60
2018-10-06T08:20:52.891Z,16.70
2018-10-06T08:23:22.330Z,16.70
2018-10-06T08:25:51.499Z,16.80
2018-10-06T08:28:20.647Z,16.90
2018-10-06T08:30:49.792Z,17.00
2018-10-06T08:33:18.980Z,17.00
2018-10-06T08:35:48.195Z,17.00
2018-10-06T08:38:17.415Z,17.20
2018-10-06T08:40:46.620Z,17.10
2018-10-06T08:43:15.743Z,17.10
2018-10-06T08:45:44.907Z,17.10
2018-10-06T08:48:14.105Z,17.10
2018-10-06T08:50:43.305Z,17.20
2018-10-06T08:53:12.418Z,17.10
2018-10-06T08:55:41.924Z,17.00
2018-10-06T08:58:11.114Z,17.10
2018-10-06T09:00:40.376Z,17.30
2018-10-06T09:03:09.568Z,17.30
2018-10-06T09:05:38.753Z,17.40
2018-10-06T09:08:07.990Z,17.40
2018-10-06T09:10:37.129Z,17.40
2018-10-06T09:13:06.404Z,17.60
2018-10-06T09:15:35.610Z,17.70
2018-10-06T09:18:04.807Z,17.90
2018-10-06T09:20:33.937Z,18.30
2018-10-06T09:23:03.117Z,18.50
2018-10-06T09:25:32.276Z,18.80
2018-10-06T09:28:01.440Z,19.00
2018-10-06T09:30:30.676Z,19.10
2018-10-06T09:32:59.810Z,19.20
2018-10-06T09:35:28.983Z,19.20
2018-10-06T09:37:58.181Z,19.20
2018-10-06T09:40:27.446Z,19.40
2018-10-06T09:42:56.735Z,19.50
2018-10-06T09:45:25.774Z,19.60
2018-10-06T09:47:55.075Z,19.80
2018-10-06T09:50:24.185Z,19.90
2018-10-06T09:52:53.379Z,20.00
2018-10-06T09:55:22.625Z,20.10
2018-10-06T09:57:51.844Z,20.00
2018-10-06T10:00:26.589Z,19.90
2018-10-06T10:03:01.086Z,20.00
2018-10-06T10:05:35.595Z,20.30
2018-10-06T10:08:04.651Z,20.40
2018-10-06T10:10:33.822Z,20.50
2018-10-06T10:13:03.167Z,20.60
2018-10-06T10:15:32.437Z,20.70
2018-10-06T10:18:01.625Z,20.70
2018-10-06T10:20:30.685Z,20.70
2018-10-06T10:23:00.518Z,20.90
2018-10-06T10:25:29.593Z,21.00
2018-10-06T10:27:58.806Z,21.20
2018-10-06T10:30:28.094Z,21.20
2018-10-06T10:32:57.270Z,21.30
2018-10-06T10:35:26.485Z,21.30
2018-10-06T10:37:55.599Z,21.30
2018-10-06T10:40:24.788Z,21.40
2018-10-06T10:42:53.925Z,21.50
2018-10-06T10:45:23.180Z,21.50
2018-10-06T10:47:52.480Z,21.50
2018-10-06T10:50:21.610Z,21.60
2018-10-06T10:52:50.948Z,21.50
2018-10-06T10:55:20.171Z,21.50
2018-10-06T10:57:49.415Z,21.40
2018-10-06T11:00:18.753Z,21.50
2018-10-06T11:02:47.820Z,21.60
2018-10-06T11:05:17.062Z,21.80
2018-10-06T11:07:46.188Z,22.00
2018-10-06T11:10:15.408Z,22.30
2018-10-06T11:12:44.559Z,22.40
2018-10-06T11:15:13.801Z,22.50
2018-10-06T11:17:43.871Z,22.40
2018-10-06T11:20:13.060Z,22.20
2018-10-06T11:22:42.270Z,22.10
2018-10-06T11:25:11.522Z,22.00
2018-10-06T11:27:40.746Z,21.90
2018-10-06T11:30:11.035Z,21.80
2018-10-06T11:32:40.226Z,21.90
2018-10-06T11:35:09.378Z,22.00
2018-10-06T11:37:38.687Z,22.20
2018-10-06T11:40:07.757Z,22.20
2018-10-06T11:42:37.053Z,22.30
2018-10-06T11:45:06.326Z,22.30
2018-10-06T11:47:35.489Z,22.40
2018-10-06T11:50:05.645Z,22.60
2018-10-06T11:52:35.837Z,22.70
2018-10-06T11:55:05.250Z,22.80
2018-10-06T11:57:34.435Z,22.90
2018-10-06T12:00:03.790Z,22.90
2018-10-06T12:02:33.092Z,22.90
2018-10-06T12:05:02.305Z,22.80
2018-10-06T12:07:31.520Z,22.80
2018-10-06T12:10:00.762Z,22.80
2018-10-06T12:12:29.951Z,23.10
2018-10-06T12:14:59.171Z,23.10
2018-10-06T12:17:28.370Z,23.10
2018-10-06T12:19:57.588Z,23.00
2018-10-06T12:22:26.709Z,22.90
2018-10-06T12:24:55.916Z,22.80
2018-10-06T12:27:25.105Z,22.80
2018-10-06T12:29:54.296Z,22.80
2018-10-06T12:32:23.481Z,22.80
2018-10-06T12:34:52.725Z,22.80
2018-10-06T12:37:21.801Z,22.80
2018-10-06T12:39:50.990Z,22.80
2018-10-06T12:42:20.233Z,22.80
2018-10-06T12:44:49.397Z,22.80
2018-10-06T12:47:18.546Z,22.80
2018-10-06T12:49:47.845Z,22.90
2018-10-06T12:52:17.057Z,22.90
2018-10-06T12:54:46.255Z,22.90
2018-10-06T12:57:15.529Z,23.00
2018-10-06T12:59:44.736Z,23.00
2018-10-06T13:02:13.878Z,23.00
2018-10-06T13:04:43.164Z,23.00
2018-10-06T13:07:12.289Z,23.00
2018-10-06T13:09:41.454Z,23.00
2018-10-06T13:12:10.633Z,23.10
2018-10-06T13:14:39.859Z,23.00
2018-10-06T13:17:09.019Z,22.90
2018-10-06T13:19:38.234Z,22.90
2018-10-06T13:22:07.485Z,22.90
2018-10-06T13:24:36.693Z,22.90
2018-10-06T13:27:05.900Z,22.90
2018-10-06T13:29:35.036Z,22.80
2018-10-06T13:32:04.373Z,22.70
2018-10-06T13:34:33.446Z,22.80
2018-10-06T13:37:02.697Z,22.80
2018-10-06T13:39:31.872Z,22.90
2018-10-06T13:42:01.058Z,23.00
2018-10-06T13:44:30.261Z,23.00
2018-10-06T13:46:59.502Z,23.10
2018-10-06T13:49:28.610Z,23.00
2018-10-06T13:51:57.814Z,23.00
2018-10-06T13:54:26.985Z,23.10
2018-10-06T13:56:56.194Z,23.10
2018-10-06T13:59:25.584Z,23.00
2018-10-06T14:01:54.769Z,23.10
2018-10-06T14:04:24.039Z,23.30
2018-10-06T14:06:53.237Z,23.50
2018-10-06T14:09:22.416Z,23.60
2018-10-06T14:11:51.662Z,23.80
2018-10-06T14:14:20.858Z,23.90
2018-10-06T14:16:50.290Z,23.80
2018-10-06T14:19:19.507Z,23.70
2018-10-06T14:21:48.629Z,23.60
2018-10-06T14:24:17.778Z,23.50
2018-10-06T14:26:46.951Z,23.40
2018-10-06T14:29:16.094Z,23.20
2018-10-06T14:31:45.632Z,23.00
2018-10-06T14:34:14.817Z,23.00
2018-10-06T14:36:43.990Z,22.90
2018-10-06T14:39:13.206Z,22.70
2018-10-06T14:41:42.418Z,22.60
2018-10-06T14:44:11.616Z,22.40
2018-10-06T14:46:40.785Z,22.30
2018-10-06T14:49:09.898Z,22.20
2018-10-06T14:51:39.059Z,22.10
2018-10-06T14:54:08.207Z,22.10
2018-10-06T14:56:37.401Z,22.10
2018-10-06T14:59:06.550Z,22.10
2018-10-06T15:01:35.689Z,22.00
2018-10-06T15:04:04.789Z,22.00
2018-10-06T15:06:34.037Z,22.00
2018-10-06T15:09:03.531Z,22.00
2018-10-06T15:11:32.690Z,22.00
2018-10-06T15:14:01.911Z,22.00
2018-10-06T15:16:31.055Z,21.90
2018-10-06T15:19:00.182Z,21.90
2018-10-06T15:21:29.474Z,21.80
2018-10-06T15:23:58.598Z,21.80
2018-10-06T15:26:28.223Z,21.80
2018-10-06T15:28:58.094Z,21.80
2018-10-06T15:31:27.280Z,21.80
2018-10-06T15:33:56.444Z,21.80
2018-10-06T15:36:25.683Z,21.80
2018-10-06T15:38:54.798Z,21.80
2018-10-06T15:41:23.946Z,21.70
2018-10-06T15:43:54.217Z,21.70
2018-10-06T15:46:23.406Z,21.60
2018-10-06T15:48:52.591Z,21.50
2018-10-06T15:51:21.726Z,21.40
2018-10-06T15:53:50.928Z,21.40
2018-10-06T15:56:20.127Z,21.40
2018-10-06T15:58:49.282Z,21.30
2018-10-06T16:01:18.453Z,21.20
2018-10-06T16:03:47.619Z,21.20
2018-10-06T16:06:16.809Z,21.20
2018-10-06T16:08:46.008Z,21.10
2018-10-06T16:11:15.548Z,21.10
2018-10-06T16:13:44.708Z,21.00
2018-10-06T16:16:13.911Z,21.00
2018-10-06T16:18:43.413Z,20.90
2018-10-06T16:21:12.550Z,20.80
2018-10-06T16:23:41.740Z,20.80
2018-10-06T16:26:11.032Z,20.80
2018-10-06T16:28:40.205Z,20.80
2018-10-06T16:31:09.403Z,20.70
2018-10-06T16:33:38.716Z,20.60
2018-10-06T16:36:07.737Z,20.60
2018-10-06T16:38:36.906Z,20.60
2018-10-06T16:41:06.068Z,20.60
2018-10-06T16:43:35.171Z,20.50
2018-10-06T16:46:04.426Z,20.40
2018-10-06T16:48:33.726Z,20.40
2018-10-06T16:51:02.882Z,20.30
2018-10-06T16:53:32.056Z,20.40
2018-10-06T16:56:01.224Z,20.30
2018-10-06T16:58:30.389Z,20.30
2018-10-06T17:00:59.580Z,20.30
2018-10-06T17:03:28.680Z,20.20
2018-10-06T17:05:57.850Z,20.20
2018-10-06T17:08:26.977Z,20.10
2018-10-06T17:10:56.161Z,20.10
2018-10-06T17:13:25.375Z,20.10
2018-10-06T17:15:54.566Z,20.00
2018-10-06T17:18:23.784Z,20.00
2018-10-06T17:20:52.854Z,19.90
2018-10-06T17:23:22.015Z,19.90
2018-10-06T17:25:51.416Z,19.90
2018-10-06T17:28:20.534Z,19.80
2018-10-06T17:30:50.073Z,19.80
2018-10-06T17:33:19.233Z,19.80
2018-10-06T17:35:48.454Z,19.70
2018-10-06T17:38:17.621Z,19.60
2018-10-06T17:40:46.765Z,19.50
2018-10-06T17:43:16.010Z,19.50
2018-10-06T17:45:48.372Z,19.50
2018-10-06T17:48:17.624Z,19.40
2018-10-06T17:50:47.027Z,19.30
2018-10-06T17:53:16.368Z,19.30
2018-10-06T17:55:45.529Z,19.20
2018-10-06T17:58:14.868Z,19.20
2018-10-06T18:00:44.051Z,19.10
2018-10-06T18:03:13.217Z,19.00
2018-10-06T18:05:42.378Z,19.00
2018-10-06T18:08:11.550Z,19.00
2018-10-06T18:10:40.768Z,18.90
2018-10-06T18:13:09.953Z,18.90
2018-10-06T18:15:39.145Z,18.80
2018-10-06T18:18:08.435Z,18.80
2018-10-06T18:20:37.829Z,18.80
2018-10-06T18:23:06.810Z,18.80
2018-10-06T18:25:36.025Z,18.80
2018-10-06T18:28:05.242Z,18.80
2018-10-06T18:30:34.425Z,18.80
2018-10-06T18:33:03.606Z,18.80
2018-10-06T18:35:32.830Z,18.70
2018-10-06T18:38:02.016Z,18.70
2018-10-06T18:40:31.172Z,18.70
2018-10-06T18:43:00.383Z,18.70
2018-10-06T18:45:29.567Z,18.70
2018-10-06T18:47:58.708Z,18.70
2018-10-06T18:50:27.881Z,18.70
2018-10-06T18:52:57.039Z,18.70
2018-10-06T18:55:26.185Z,18.70
2018-10-06T18:57:55.401Z,18.70
2018-10-06T19:00:24.549Z,18.70
2018-10-06T19:02:53.724Z,18.60
2018-10-06T19:05:22.885Z,18.60
2018-10-06T19:07:52.115Z,18.60
2018-10-06T19:10:21.372Z,18.60
2018-10-06T19:12:50.512Z,18.60
2018-10-06T19:15:19.661Z,18.60
2018-10-06T19:17:48.828Z,18.50
2018-10-06T19:20:18.002Z,18.50
2018-10-06T19:22:47.204Z,18.50
2018-10-06T19:25:16.349Z,18.50
2018-10-06T19:27:45.535Z,18.50
2018-10-06T19:30:14.698Z,18.40
2018-10-06T19:32:43.886Z,18.40
2018-10-06T19:35:13.034Z,18.40
2018-10-06T19:37:42.174Z,18.40
2018-10-06T19:40:11.335Z,18.40
2018-10-06T19:42:40.570Z,18.40
2018-10-06T19:45:09.846Z,18.40
2018-10-06T19:47:38.945Z,18.40
2018-10-06T19:50:08.181Z,18.40
2018-10-06T19:52:37.303Z,18.40
2018-10-06T19:55:06.614Z,18.40
2018-10-06T19:57:35.755Z,18.40
2018-10-06T20:00:05.014Z,18.30
2018-10-06T20:02:34.230Z,18.30
2018-10-06T20:05:03.416Z,18.30
2018-10-06T20:07:32.820Z,18.30
2018-10-06T20:10:02.006Z,18.30
2018-10-06T20:12:31.244Z,18.30
2018-10-06T20:15:00.341Z,18.20
2018-10-06T20:17:29.544Z,18.20
2018-10-06T20:19:58.722Z,18.20
2018-10-06T20:22:27.915Z,18.10
2018-10-06T20:24:57.066Z,18.00
2018-10-06T20:27:26.494Z,18.00
2018-10-06T20:29:55.654Z,17.90
2018-10-06T20:32:24.867Z,17.90
2018-10-06T20:34:54.072Z,17.90
2018-10-06T20:37:23.922Z,17.90
2018-10-06T20:39:53.373Z,17.90
2018-10-06T20:42:22.552Z,18.00
2018-10-06T20:44:51.681Z,17.90
2018-10-06T20:47:20.844Z,17.90
2018-10-06T20:49:50.159Z,17.90
2018-10-06T20:52:19.322Z,18.00
2018-10-06T20:54:48.461Z,18.00
2018-10-06T20:57:17.882Z,18.00
2018-10-06T20:59:48.082Z,18.00
2018-10-06T21:02:17.266Z,17.90
2018-10-06T21:04:46.394Z,17.80
2018-10-06T21:07:15.543Z,17.80
2018-10-06T21:09:44.771Z,17.80
2018-10-06T21:12:13.963Z,17.80
2018-10-06T21:14:43.142Z,17.80
2018-10-06T21:17:12.335Z,17.80
2018-10-06T21:19:44.456Z,17.80
2018-10-06T21:22:13.625Z,17.80
2018-10-06T21:24:42.795Z,17.80
2018-10-06T21:27:11.982Z,17.80
2018-10-06T21:29:41.417Z,17.90
2018-10-06T21:32:10.746Z,17.80
2018-10-06T21:34:40.214Z,17.70
2018-10-06T21:37:09.807Z,17.80
2018-10-06T21:39:39.005Z,17.80
2018-10-06T21:42:08.350Z,17.80
2018-10-06T21:44:37.483Z,17.70
2018-10-06T21:47:06.638Z,17.70
2018-10-06T21:49:35.784Z,17.60
2018-10-06T21:52:05.039Z,17.70
2018-10-06T21:54:34.184Z,17.70
2018-10-06T21:57:03.324Z,17.70
2018-10-06T21:59:32.918Z,17.70
2018-10-06T22:02:02.076Z,17.70
2018-10-06T22:04:31.222Z,17.70
2018-10-06T22:07:00.438Z,17.70
2018-10-06T22:09:29.628Z,17.70
2018-10-06T22:11:58.815Z,17.70
2018-10-06T22:14:28.018Z,17.80
2018-10-06T22:16:57.252Z,17.70
2018-10-06T22:19:26.579Z,17.60
2018-10-06T22:21:55.734Z,17.60
2018-10-06T22:24:24.986Z,17.60
2018-10-06T22:26:54.169Z,17.40
2018-10-06T22:29:23.324Z,17.30
2018-10-06T22:31:52.475Z,17.30
2018-10-06T22:34:21.647Z,17.30
2018-10-06T22:36:50.832Z,17.30
2018-10-06T22:39:20.029Z,17.20
2018-10-06T22:41:49.375Z,17.20
2018-10-06T22:44:18.584Z,17.20
2018-10-06T22:46:47.724Z,17.00
2018-10-06T22:49:17.047Z,17.10
2018-10-06T22:51:46.201Z,17.00
2018-10-06T22:54:15.431Z,17.10
2018-10-06T22:56:44.800Z,17.20
2018-10-06T22:59:13.918Z,17.20
2018-10-06T23:01:43.394Z,17.20
2018-10-06T23:04:12.538Z,17.20
2018-10-06T23:06:41.714Z,17.10
2018-10-06T23:09:12.149Z,17.00
2018-10-06T23:11:41.314Z,17.10
2018-10-06T23:14:10.438Z,17.00
2018-10-06T23:16:39.604Z,16.90
2018-10-06T23:19:08.740Z,16.80
2018-10-06T23:21:37.956Z,16.70
2018-10-06T23:24:07.168Z,16.70
2018-10-06T23:26:36.352Z,16.70
2018-10-06T23:29:05.555Z,16.60
2018-10-06T23:31:34.725Z,16.60
2018-10-06T23:34:03.939Z,16.50
2018-10-06T23:36:33.133Z,16.40
2018-10-06T23:39:02.314Z,16.50
2018-10-06T23:41:31.474Z,16.50
2018-10-06T23:44:00.693Z,16.40
2018-10-06T23:46:29.885Z,16.50
2018-10-06T23:48:59.092Z,16.60
2018-10-06T23:51:28.387Z,16.60
2018-10-06T23:53:57.598Z,16.60
2018-10-06T23:56:26.800Z,16.70
2018-10-06T23:58:56.019Z,16.70
